createdAt,value
2018-08-31T00:01:54.198Z,82.3
2018-08-31T00:17:14.845Z,80.8
2018-08-31T00:32:32.337Z,78.9
2018-08-31T00:47:48.022Z,78.3
2018-08-31T01:02:52.911Z,78.5
2018-08-31T01:18:20.895Z,77.6
2018-08-31T01:33:37.427Z,77
2018-08-31T01:48:53.695Z,77.5
2018-08-31T02:04:10.041Z,78.1
2018-08-31T02:19:21.120Z,78.7
2018-08-31T02:34:42.263Z,79.2
2018-08-31T02:49:58.296Z,80.1
2018-08-31T03:05:14.286Z,80.6
2018-08-31T03:20:17.794Z,80.8
2018-08-31T03:35:46.216Z,80.6
2018-08-31T03:51:02.075Z,80
2018-08-31T04:06:17.818Z,79.7
2018-08-31T04:21:34.050Z,79.7
2018-08-31T04:36:43.933Z,80.4
2018-08-31T04:52:05.083Z,79.1
2018-08-31T05:07:20.873Z,76.8
2018-08-31T05:22:36.925Z,74.9
2018-08-31T05:37:40.467Z,72.8
2018-08-31T05:53:08.990Z,70.9
2018-08-31T06:08:24.938Z,56.8
2018-08-31T06:23:41.372Z,50.2
2018-08-31T06:38:48.518Z,45.9
2018-08-31T06:54:13.765Z,46
2018-08-31T07:09:30.816Z,43.3
2018-08-31T07:24:47.572Z,43.4
2018-08-31T07:40:01.372Z,43.6
2018-08-31T07:55:20.536Z,42.4
2018-08-31T08:10:37.314Z,42.5
2018-08-31T08:25:54.686Z,40.1
2018-08-31T08:41:06.967Z,40.7
2018-08-31T08:56:29.181Z,42
2018-08-31T09:11:46.310Z,44.2
2018-08-31T09:27:03.645Z,42.7
2018-08-31T09:42:10.258Z,43.6
2018-08-31T09:57:38.313Z,41
2018-08-31T10:12:55.560Z,37.1
2018-08-31T10:28:13.629Z,35
2018-08-31T10:43:32.238Z,36.9
2018-08-31T10:58:46.412Z,33.8
2018-08-31T11:14:08.983Z,32.5
2018-08-31T11:29:27.851Z,32.5
2018-08-31T11:44:46.981Z,29.6
2018-08-31T11:59:52.767Z,28.9
2018-08-31T12:15:25.721Z,27.4
2018-08-31T12:30:46.361Z,26.2
2018-08-31T12:46:06.689Z,25.6
2018-08-31T13:01:26.725Z,26.5
2018-08-31T13:16:33.681Z,27.4
2018-08-31T13:32:06.640Z,27.7
2018-08-31T13:47:26.174Z,28.5
2018-08-31T14:02:45.801Z,27.3
2018-08-31T14:18:05.800Z,27.9
2018-08-31T14:33:15.081Z,28.4
2018-08-31T14:48:43.771Z,30.4
2018-08-31T15:04:02.818Z,30.8
2018-08-31T15:19:20.707Z,31.1
2018-08-31T15:34:39.947Z,32.6
2018-08-31T15:49:52.992Z,33.6
2018-08-31T16:05:15.621Z,33.1
2018-08-31T16:20:34.068Z,33.4
2018-08-31T16:35:52.665Z,33.9
2018-08-31T16:50:57.680Z,33.8
2018-08-31T17:06:28.575Z,34.4
2018-08-31T17:21:46.657Z,34.5
2018-08-31T17:37:04.568Z,34.9
2018-08-31T17:52:22.191Z,36.4
2018-08-31T18:07:32.866Z,36.9
2018-08-31T18:22:57.767Z,37
2018-08-31T18:54:06.489Z,38.9
2018-08-31T19:09:38.064Z,41.5
2018-08-31T19:25:06.272Z,42.5
2018-08-31T19:40:24.220Z,43.3
2018-08-31T19:55:40.984Z,44.2
2018-08-31T20:10:58.409Z,43.2
2018-08-31T20:26:10.777Z,43.5
2018-08-31T20:41:33.385Z,42.9
2018-08-31T20:56:50.828Z,43.1
2018-08-31T21:12:08.138Z,44
2018-08-31T21:27:12.666Z,45.1
2018-08-31T21:42:41.893Z,44.3
2018-08-31T21:58:00.747Z,43.2
2018-08-31T22:13:16.908Z,42.2
2018-08-31T22:28:33.512Z,40.8
2018-08-31T22:43:44.364Z,40.8
2018-08-31T22:59:07.686Z,40.6
2018-08-31T23:14:24.322Z,41.2
2018-08-31T23:29:41.727Z,41.1
2018-08-31T23:44:44.279Z,41.9
